Time;durP1;ratioP1;P1;durP2;ratioP2;P2;SDS_P1;SDS_P2;PMS_P1;PMS_P2;Temp;Humidity;BMP_temperature;BMP_pressure;BME280_temperature;BME280_humidity;BME280_pressure;Samples;Min_cycle;Max_cycle;Signal;HPM_P1;HPM_P2
2021/12/05 00:20:32;;;;;;;19.73;7.55;;;3.40;99.90;;;;;;4956747;28;20054;-64
2021/12/05 00:22:56;;;;;;;24.38;8.15;;;3.40;99.90;;;;;;4965146;28;20038;-64
2021/12/05 00:25:28;;;;;;;21.67;8.30;;;3.40;99.90;;;;;;4953850;28;20042;-64
2021/12/05 00:39:11;;;;;;;18.90;7.10;;;3.60;99.90;;;;;;4967257;28;20055;-64
2021/12/05 00:47:27;;;;;;;20.38;6.53;;;3.60;99.90;;;;;;4960306;28;19969;-65
2021/12/05 01:03:06;;;;;;;28.17;16.80;;;3.60;99.90;;;;;;4960323;28;20071;-64
2021/12/05 01:08:12;;;;;;;12.82;5.93;;;3.60;99.90;;;;;;4964470;28;20070;-64
2021/12/05 01:13:34;;;;;;;12.98;5.50;;;3.50;99.90;;;;;;4962525;28;20046;-64
2021/12/05 01:16:12;;;;;;;18.23;5.82;;;3.40;99.90;;;;;;4957900;28;20043;-65
2021/12/05 01:18:39;;;;;;;19.88;5.57;;;3.40;99.90;;;;;;4969836;28;20050;-64
2021/12/05 01:21:09;;;;;;;14.27;4.82;;;3.40;99.90;;;;;;4960124;28;20039;-63
2021/12/05 01:23:53;;;;;;;15.32;6.03;;;3.40;99.90;;;;;;4968500;28;20142;-63
2021/12/05 01:26:28;;;;;;;14.52;6.45;;;3.40;99.90;;;;;;4965794;28;20035;-63
2021/12/05 01:34:24;;;;;;;13.68;5.28;;;3.40;99.90;;;;;;4966438;28;20055;-63
2021/12/05 01:37:05;;;;;;;17.05;5.93;;;3.50;99.90;;;;;;4966788;28;20125;-64
2021/12/05 01:58:59;;;;;;;16.60;6.10;;;3.70;99.90;;;;;;4959050;28;20050;-63
2021/12/05 02:15:10;;;;;;;15.15;6.45;;;3.80;99.90;;;;;;4957883;28;20130;-64
2021/12/05 02:32:16;;;;;;;23.13;10.32;;;3.90;99.90;;;;;;4968411;28;20570;-63
2021/12/05 02:45:18;;;;;;;28.02;12.68;;;4.00;99.90;;;;;;4958096;28;20078;-63
2021/12/05 02:47:49;;;;;;;31.70;13.52;;;4.00;99.90;;;;;;4964163;28;20467;-63
2021/12/05 02:50:16;;;;;;;34.63;14.18;;;4.00;99.90;;;;;;4945596;28;20039;-63
2021/12/05 02:52:43;;;;;;;31.80;13.68;;;4.00;99.90;;;;;;4965017;28;20510;-63
2021/12/05 02:55:39;;;;;;;34.13;14.13;;;4.00;99.90;;;;;;4938236;28;20148;-63
2021/12/05 02:58:25;;;;;;;35.33;13.65;;;4.10;99.90;;;;;;4963830;28;20096;-63
2021/12/05 03:03:28;;;;;;;33.55;13.98;;;4.00;99.90;;;;;;4962355;28;20491;-63
2021/12/05 03:06:03;;;;;;;24.98;13.43;;;4.00;99.90;;;;;;4958971;28;20051;-63
2021/12/05 03:08:29;;;;;;;28.40;13.70;;;4.00;99.90;;;;;;4948371;28;20157;-63
2021/12/05 03:10:57;;;;;;;33.80;13.00;;;4.00;99.90;;;;;;4958338;28;20050;-63
2021/12/05 03:13:23;;;;;;;119.07;85.10;;;4.00;99.90;;;;;;4966637;28;20054;-63
2021/12/05 03:15:49;;;;;;;32.80;16.88;;;4.00;99.90;;;;;;4960356;28;20047;-63
2021/12/05 03:18:15;;;;;;;26.77;13.95;;;4.00;99.90;;;;;;4962771;28;20043;-63
2021/12/05 03:20:41;;;;;;;26.48;13.52;;;4.00;99.90;;;;;;4961369;28;20054;-63
2021/12/05 03:23:07;;;;;;;29.42;12.40;;;4.10;99.90;;;;;;4962677;28;20061;-63
2021/12/05 03:25:33;;;;;;;26.75;12.70;;;4.00;99.90;;;;;;4956204;28;20043;-63
2021/12/05 03:28:00;;;;;;;26.50;12.20;;;4.00;99.90;;;;;;4960370;28;20031;-63
2021/12/05 03:30:27;;;;;;;29.77;13.25;;;4.00;99.90;;;;;;4958258;28;20509;-63
2021/12/05 03:32:54;;;;;;;30.80;12.27;;;4.00;99.90;;;;;;4965624;28;20034;-63
2021/12/05 03:35:24;;;;;;;33.53;12.20;;;4.00;99.90;;;;;;4966798;28;20124;-63
2021/12/05 03:37:52;;;;;;;20.50;10.65;;;4.00;99.90;;;;;;4960451;28;20177;-63
2021/12/05 03:40:22;;;;;;;22.27;11.55;;;4.00;99.90;;;;;;4964213;28;20070;-63
2021/12/05 03:42:48;;;;;;;24.88;10.82;;;4.00;99.90;;;;;;4959105;28;20420;-63
2021/12/05 03:45:20;;;;;;;23.38;10.90;;;3.90;99.90;;;;;;4960651;28;20125;-63
2021/12/05 03:47:46;;;;;;;27.27;10.75;;;3.90;99.90;;;;;;4955854;28;20039;-63
2021/12/05 03:50:12;;;;;;;22.88;10.63;;;3.90;99.90;;;;;;4964851;28;20050;-63
2021/12/05 03:52:40;;;;;;;27.50;10.90;;;3.90;99.90;;;;;;4958832;28;20475;-63
2021/12/05 03:55:08;;;;;;;22.80;10.52;;;3.90;99.90;;;;;;4962727;28;20043;-63
2021/12/05 03:57:34;;;;;;;22.10;10.02;;;3.90;99.90;;;;;;4954194;28;20044;-63
2021/12/05 04:00:00;;;;;;;24.55;10.32;;;3.90;99.90;;;;;;4965702;28;20047;-63
2021/12/05 04:02:26;;;;;;;23.23;9.80;;;3.90;99.90;;;;;;4961548;28;20361;-63
2021/12/05 04:04:51;;;;;;;27.15;10.07;;;3.90;99.90;;;;;;4952038;28;20031;-63
2021/12/05 04:07:18;;;;;;;22.73;10.30;;;4.00;99.90;;;;;;4954988;28;20441;-63
2021/12/05 04:09:46;;;;;;;27.25;10.32;;;3.90;99.90;;;;;;4967251;28;20142;-63
2021/12/05 04:12:15;;;;;;;24.23;9.20;;;3.90;99.90;;;;;;4959705;28;20134;-63
2021/12/05 04:14:44;;;;;;;26.95;9.45;;;3.90;99.90;;;;;;4948893;28;20055;-63
2021/12/05 04:17:12;;;;;;;23.35;9.77;;;3.90;99.90;;;;;;4932546;28;20415;-63
2021/12/05 04:19:38;;;;;;;28.98;9.90;;;3.80;99.90;;;;;;4961598;28;20118;-63
2021/12/05 04:22:06;;;;;;;23.33;9.15;;;3.80;99.90;;;;;;4964495;28;20071;-63
2021/12/05 04:24:32;;;;;;;23.70;8.95;;;3.80;99.90;;;;;;4958613;28;20050;-63
2021/12/05 04:26:58;;;;;;;23.50;8.90;;;3.80;99.90;;;;;;4966654;28;20092;-63
2021/12/05 04:29:24;;;;;;;24.80;8.93;;;3.80;99.90;;;;;;4943065;28;20131;-63
2021/12/05 04:31:50;;;;;;;20.95;8.38;;;3.70;99.90;;;;;;4959955;28;20066;-63
2021/12/05 04:34:16;;;;;;;24.38;8.30;;;3.70;99.90;;;;;;4957783;28;20158;-63
2021/12/05 04:36:43;;;;;;;22.85;8.45;;;3.70;99.90;;;;;;4965159;28;20109;-63
2021/12/05 04:39:10;;;;;;;25.23;8.15;;;3.70;99.90;;;;;;4959172;28;20062;-63
2021/12/05 04:41:39;;;;;;;19.98;8.10;;;3.60;99.90;;;;;;4960001;28;20063;-63
2021/12/05 04:44:06;;;;;;;20.33;7.90;;;3.60;99.90;;;;;;4955311;28;20035;-63
2021/12/05 04:46:33;;;;;;;21.75;7.30;;;3.50;99.90;;;;;;4962463;28;20144;-63
2021/12/05 04:48:59;;;;;;;28.15;8.32;;;3.50;99.90;;;;;;4961991;28;20399;-63
2021/12/05 04:51:33;;;;;;;26.60;7.47;;;3.50;99.90;;;;;;4964087;28;20038;-63
2021/12/05 04:54:00;;;;;;;26.88;6.90;;;3.40;99.90;;;;;;4957912;28;20057;-63
2021/12/05 04:56:27;;;;;;;21.98;7.57;;;3.40;99.90;;;;;;4963689;28;20070;-63
2021/12/05 04:58:54;;;;;;;22.88;6.97;;;3.30;99.90;;;;;;4958907;28;20515;-63
2021/12/05 05:01:21;;;;;;;20.10;7.53;;;3.20;99.90;;;;;;4968490;28;20047;-63
2021/12/05 05:03:47;;;;;;;22.38;7.32;;;3.20;99.90;;;;;;4964566;28;20130;-63
2021/12/05 05:06:17;;;;;;;22.10;6.63;;;3.20;99.90;;;;;;4953472;28;20097;-63
2021/12/05 05:08:47;;;;;;;17.85;6.60;;;3.10;99.90;;;;;;4965124;28;20138;-63
2021/12/05 05:11:15;;;;;;;19.17;7.28;;;3.10;99.90;;;;;;4958362;28;20054;-63
2021/12/05 05:13:42;;;;;;;19.85;7.00;;;3.00;99.90;;;;;;4964187;28;20078;-63
2021/12/05 05:16:09;;;;;;;20.73;6.85;;;3.00;99.90;;;;;;4956092;28;20031;-63
2021/12/05 05:18:47;;;;;;;23.25;6.78;;;3.00;99.90;;;;;;4960705;28;20067;-63
2021/12/05 05:40:26;;;;;;;17.13;6.10;;;2.70;99.90;;;;;;4966326;28;20186;-63
2021/12/05 05:48:30;;;;;;;20.90;6.63;;;2.70;99.90;;;;;;4964783;28;20118;-63
2021/12/05 05:50:56;;;;;;;21.15;6.78;;;2.60;99.90;;;;;;4958707;28;20045;-63
2021/12/05 05:53:22;;;;;;;24.98;6.60;;;2.60;99.90;;;;;;4959801;28;20418;-63
2021/12/05 05:55:48;;;;;;;22.05;7.10;;;2.60;99.90;;;;;;4962336;28;20064;-63
2021/12/05 05:58:16;;;;;;;18.52;6.38;;;2.60;99.90;;;;;;4944902;28;20062;-63
2021/12/05 06:03:36;;;;;;;17.63;6.90;;;2.50;99.90;;;;;;4948427;28;20172;-63
2021/12/05 06:06:04;;;;;;;29.70;7.20;;;2.50;99.90;;;;;;4968741;28;20071;-63
2021/12/05 06:08:33;;;;;;;21.80;6.82;;;2.50;99.90;;;;;;4959435;28;20061;-63
2021/12/05 06:11:02;;;;;;;19.27;6.82;;;2.50;99.90;;;;;;4962772;28;20039;-63
2021/12/05 06:13:29;;;;;;;26.35;6.55;;;2.50;99.90;;;;;;4959743;28;20053;-63
2021/12/05 06:15:55;;;;;;;29.55;7.25;;;2.50;99.90;;;;;;4967446;28;20046;-63
2021/12/05 06:18:21;;;;;;;26.27;7.53;;;2.50;99.90;;;;;;4961658;28;20043;-63
2021/12/05 06:20:47;;;;;;;23.13;7.68;;;2.60;99.90;;;;;;4969660;28;20511;-63
2021/12/05 06:23:14;;;;;;;21.35;7.93;;;2.60;99.90;;;;;;4957527;28;20558;-63
2021/12/05 06:25:42;;;;;;;25.85;8.07;;;2.60;99.90;;;;;;4965883;28;20471;-63
2021/12/05 06:28:12;;;;;;;31.73;7.38;;;2.70;99.90;;;;;;4956383;28;20039;-63
2021/12/05 06:46:36;;;;;;;22.33;8.38;;;3.00;99.90;;;;;;4965475;28;20043;-63
2021/12/05 06:49:02;;;;;;;24.90;9.02;;;3.00;99.90;;;;;;4960057;28;20037;-63
2021/12/05 06:51:29;;;;;;;25.98;9.57;;;3.00;99.90;;;;;;4969162;28;20064;-63
2021/12/05 06:53:56;;;;;;;24.95;9.02;;;3.00;99.90;;;;;;4946986;28;20043;-63
2021/12/05 06:56:23;;;;;;;29.42;9.07;;;3.10;99.90;;;;;;4964098;28;20064;-63
2021/12/05 06:58:51;;;;;;;22.00;8.85;;;3.10;99.90;;;;;;4940556;28;20122;-64
2021/12/05 07:01:17;;;;;;;31.90;10.13;;;3.10;99.90;;;;;;4965783;28;20109;-63
2021/12/05 07:03:47;;;;;;;25.70;9.10;;;3.10;99.90;;;;;;4955692;28;20074;-63
2021/12/05 07:06:27;;;;;;;29.83;9.13;;;3.10;99.90;;;;;;4962818;28;20371;-63
2021/12/05 07:08:57;;;;;;;29.27;9.13;;;3.10;99.90;;;;;;4966282;28;20645;-63
2021/12/05 07:11:29;;;;;;;27.95;9.00;;;3.20;99.90;;;;;;4950667;28;20522;-64
2021/12/05 07:14:48;;;;;;;27.02;9.95;;;3.20;99.90;;;;;;4959146;28;20046;-64
2021/12/05 07:16:56;;;;;;;21.73;9.90;;;3.20;99.90;;;;;;4962073;28;20086;-64
2021/12/05 07:21:54;;;;;;;21.52;9.60;;;3.20;99.90;;;;;;4962308;28;20051;-64
2021/12/05 07:24:46;;;;;;;22.75;10.13;;;3.30;99.90;;;;;;4964798;28;20420;-64
2021/12/05 07:40:49;;;;;;;21.80;10.35;;;3.30;99.90;;;;;;4960281;28;20499;-64
2021/12/05 07:43:16;;;;;;;19.33;11.00;;;3.30;99.90;;;;;;4964798;28;20035;-64
2021/12/05 07:45:58;;;;;;;21.98;10.57;;;3.40;99.90;;;;;;4958538;28;20526;-63
2021/12/05 07:48:29;;;;;;;25.30;10.82;;;3.40;99.90;;;;;;4979328;28;20515;-63
2021/12/05 07:51:12;;;;;;;24.88;11.38;;;3.40;99.90;;;;;;4957757;28;20036;-63
2021/12/05 07:56:13;;;;;;;26.10;10.50;;;3.40;99.90;;;;;;4958733;28;20559;-63
2021/12/05 08:15:29;;;;;;;23.58;10.90;;;3.50;99.90;;;;;;4930991;28;20411;-64
2021/12/05 08:17:58;;;;;;;31.13;11.50;;;3.60;99.90;;;;;;4965824;28;20066;-64
2021/12/05 08:20:37;;;;;;;19.02;10.57;;;3.60;99.90;;;;;;4957312;28;20136;-64
2021/12/05 08:23:05;;;;;;;24.17;12.05;;;3.60;99.90;;;;;;4938428;28;20433;-63
2021/12/05 08:25:35;;;;;;;22.65;12.32;;;3.60;99.90;;;;;;4966292;28;20102;-63
2021/12/05 08:28:25;;;;;;;25.50;11.95;;;3.60;99.90;;;;;;4956063;28;20046;-64
2021/12/05 08:31:05;;;;;;;25.63;11.60;;;3.70;99.90;;;;;;4962091;28;20069;-68
2021/12/05 08:33:48;;;;;;;20.27;10.90;;;3.70;99.90;;;;;;4943943;28;20511;-63
2021/12/05 08:36:43;;;;;;;24.27;12.63;;;3.70;99.90;;;;;;4963123;28;20061;-63
2021/12/05 08:44:41;;;;;;;23.25;12.32;;;3.70;99.90;;;;;;4956117;28;20075;-64
2021/12/05 09:28:20;;;;;;;21.75;10.52;;;4.10;99.90;;;;;;4961634;28;20046;-64
2021/12/05 09:39:09;;;;;;;22.77;9.52;;;4.20;99.90;;;;;;4964298;28;20054;-63
2021/12/05 10:06:42;;;;;;;14.68;7.90;;;4.30;99.90;;;;;;4967672;28;20131;-63
2021/12/05 10:12:04;;;;;;;14.27;7.57;;;4.30;99.90;;;;;;4963353;28;20047;-63
2021/12/05 10:34:25;;;;;;;14.93;6.65;;;4.50;99.90;;;;;;4960469;28;20198;-63
2021/12/05 10:37:21;;;;;;;13.30;6.57;;;4.60;99.90;;;;;;4966004;28;20054;-63
2021/12/05 10:40:00;;;;;;;16.52;6.07;;;4.60;99.90;;;;;;4963137;28;20051;-63
2021/12/05 10:42:42;;;;;;;13.75;6.80;;;4.70;99.90;;;;;;4955671;28;20042;-63
2021/12/05 10:45:21;;;;;;;12.27;6.43;;;4.70;99.90;;;;;;4965398;28;20039;-64
2021/12/05 10:47:50;;;;;;;13.48;5.95;;;4.80;99.90;;;;;;4959532;28;20086;-64
2021/12/05 10:50:30;;;;;;;9.80;5.53;;;4.80;99.90;;;;;;4970319;28;20035;-63
2021/12/05 10:53:38;;;;;;;14.18;5.95;;;4.90;99.90;;;;;;4962603;28;20050;-64
2021/12/05 10:56:19;;;;;;;13.50;6.22;;;5.00;99.90;;;;;;4936343;28;20101;-64
2021/12/05 10:59:03;;;;;;;12.93;5.55;;;5.00;99.90;;;;;;4959010;28;20062;-63
2021/12/05 11:01:41;;;;;;;9.75;4.72;;;5.00;99.90;;;;;;4967618;28;20043;-63
2021/12/05 11:04:18;;;;;;;11.25;5.85;;;5.10;99.90;;;;;;4955387;28;20035;-64
2021/12/05 11:06:52;;;;;;;9.80;4.90;;;5.10;99.90;;;;;;4964313;28;20096;-63
2021/12/05 11:09:30;;;;;;;13.85;6.07;;;5.20;99.90;;;;;;4959020;28;20478;-63
2021/12/05 11:12:00;;;;;;;13.13;5.28;;;5.30;99.90;;;;;;4961376;28;20054;-63
2021/12/05 11:14:29;;;;;;;11.23;5.05;;;5.30;99.90;;;;;;4946949;28;20082;-63
2021/12/05 11:17:10;;;;;;;9.80;4.65;;;5.30;99.90;;;;;;4960367;28;20502;-63
2021/12/05 11:19:37;;;;;;;8.32;4.32;;;5.30;99.90;;;;;;4958657;28;20265;-63
2021/12/05 11:22:18;;;;;;;9.00;4.13;;;5.40;99.90;;;;;;4961293;28;20057;-63
2021/12/05 11:24:46;;;;;;;10.10;4.60;;;5.30;99.90;;;;;;4957966;28;20049;-64
2021/12/05 11:27:40;;;;;;;7.78;4.13;;;5.30;99.90;;;;;;4938230;28;20043;-63
2021/12/05 11:30:40;;;;;;;12.07;4.47;;;5.30;99.90;;;;;;4918111;28;21084;-63
2021/12/05 11:33:19;;;;;;;7.75;4.47;;;5.30;99.90;;;;;;4902689;28;20042;-63
2021/12/05 11:35:59;;;;;;;7.90;4.40;;;5.30;99.90;;;;;;4934029;28;20495;-63
2021/12/05 11:38:34;;;;;;;8.43;4.60;;;5.30;99.90;;;;;;4950593;28;20047;-63
2021/12/05 11:41:14;;;;;;;11.05;4.82;;;5.30;99.90;;;;;;4946648;28;20051;-63
2021/12/05 11:43:54;;;;;;;8.40;4.43;;;5.30;99.90;;;;;;4939728;28;20393;-63
2021/12/05 11:46:35;;;;;;;7.55;4.35;;;5.30;99.90;;;;;;4954883;28;20337;-63
2021/12/05 11:49:03;;;;;;;12.95;5.05;;;5.20;99.90;;;;;;4967021;28;20046;-63
2021/12/05 11:51:52;;;;;;;10.23;5.03;;;5.20;99.90;;;;;;4945724;28;20467;-64
2021/12/05 11:54:30;;;;;;;7.97;5.05;;;5.30;99.90;;;;;;4951915;28;20043;-64
2021/12/05 11:57:27;;;;;;;14.05;4.93;;;5.20;99.90;;;;;;4945594;28;20534;-63
2021/12/05 12:00:08;;;;;;;10.75;4.70;;;5.20;99.90;;;;;;4921861;28;20054;-63
2021/12/05 12:02:40;;;;;;;7.88;4.70;;;5.10;99.90;;;;;;4950522;28;20031;-63
2021/12/05 12:05:14;;;;;;;8.55;4.35;;;5.10;99.90;;;;;;4955812;28;20700;-63
2021/12/05 12:08:08;;;;;;;10.40;5.30;;;5.10;99.90;;;;;;4949577;28;20043;-63
2021/12/05 12:10:37;;;;;;;13.98;5.50;;;5.10;99.90;;;;;;4961671;28;20310;-63
2021/12/05 12:13:09;;;;;;;10.43;4.60;;;5.10;99.90;;;;;;4952885;28;20039;-63
2021/12/05 12:15:37;;;;;;;9.45;5.22;;;5.10;99.90;;;;;;4962990;28;20039;-64
2021/12/05 12:18:13;;;;;;;11.23;5.00;;;5.20;99.90;;;;;;4957938;28;20125;-64
2021/12/05 12:20:41;;;;;;;6.32;5.07;;;5.20;99.90;;;;;;4957352;28;20650;-64
2021/12/05 12:23:07;;;;;;;8.95;5.00;;;5.20;99.90;;;;;;4959337;28;20035;-64
2021/12/05 12:25:38;;;;;;;11.02;4.70;;;5.20;99.90;;;;;;4965826;28;20122;-64
2021/12/05 12:28:06;;;;;;;9.43;5.13;;;5.30;99.90;;;;;;4956051;28;20069;-64
2021/12/05 12:30:37;;;;;;;9.05;5.40;;;5.30;99.90;;;;;;4961954;28;20091;-63
2021/12/05 12:33:09;;;;;;;7.30;4.72;;;5.40;99.90;;;;;;4956774;28;20034;-63
2021/12/05 12:35:36;;;;;;;9.43;5.18;;;5.30;99.90;;;;;;4965439;28;20039;-64
2021/12/05 12:38:10;;;;;;;8.60;5.05;;;5.30;99.90;;;;;;4956735;28;20100;-64
2021/12/05 12:40:43;;;;;;;6.82;4.35;;;5.40;99.90;;;;;;4962029;28;20049;-63
2021/12/05 12:43:38;;;;;;;10.43;4.50;;;5.30;99.90;;;;;;4955729;28;20496;-64
2021/12/05 12:46:16;;;;;;;6.90;4.65;;;5.40;99.90;;;;;;4964362;28;20042;-64
2021/12/05 12:48:42;;;;;;;6.45;4.25;;;5.40;99.90;;;;;;4956410;28;20451;-63
2021/12/05 12:51:23;;;;;;;8.30;3.92;;;5.40;99.90;;;;;;4959951;28;20074;-63
2021/12/05 12:54:04;;;;;;;7.38;3.67;;;5.40;99.90;;;;;;4950149;28;20545;-63
2021/12/05 12:56:46;;;;;;;8.25;4.25;;;5.40;99.90;;;;;;4963980;28;20089;-64
2021/12/05 12:59:17;;;;;;;10.63;4.28;;;5.30;99.90;;;;;;4954265;28;20126;-63
2021/12/05 13:02:14;;;;;;;5.75;3.92;;;5.30;99.90;;;;;;4960591;28;20119;-63
2021/12/05 13:10:46;;;;;;;6.97;4.13;;;5.30;99.90;;;;;;4957228;28;20151;-63
2021/12/05 13:13:28;;;;;;;7.55;3.72;;;5.30;99.90;;;;;;4961679;28;20097;-64
2021/12/05 13:16:19;;;;;;;8.32;3.60;;;5.30;99.90;;;;;;4955902;28;20077;-64
2021/12/05 13:19:07;;;;;;;6.20;3.65;;;5.30;99.90;;;;;;4954588;28;20035;-64
2021/12/05 13:21:48;;;;;;;7.28;2.72;;;5.20;99.90;;;;;;4946761;28;20047;-64
2021/12/05 13:24:39;;;;;;;6.95;3.72;;;5.30;99.90;;;;;;4957685;28;20047;-64
2021/12/05 13:27:32;;;;;;;9.10;4.18;;;5.30;99.90;;;;;;4947250;28;20426;-64
2021/12/05 13:30:04;;;;;;;5.80;3.25;;;5.30;99.90;;;;;;4958175;28;20046;-63
2021/12/05 13:32:39;;;;;;;8.82;3.70;;;5.30;99.90;;;;;;4961134;28;20034;-63
2021/12/05 13:35:29;;;;;;;6.45;3.42;;;5.20;99.90;;;;;;4958372;28;20268;-64
2021/12/05 13:38:09;;;;;;;6.40;3.67;;;5.30;99.90;;;;;;4942793;28;20115;-64
2021/12/05 13:40:48;;;;;;;6.00;3.67;;;5.20;99.90;;;;;;4959819;28;20133;-64
2021/12/05 13:43:33;;;;;;;9.75;4.00;;;5.20;99.90;;;;;;4960284;28;20046;-64
2021/12/05 13:46:42;;;;;;;5.03;3.47;;;5.30;99.90;;;;;;4954287;28;20064;-64
2021/12/05 13:49:38;;;;;;;6.00;3.53;;;5.20;99.90;;;;;;4960790;28;20043;-64
2021/12/05 13:52:49;;;;;;;4.53;3.20;;;5.30;99.90;;;;;;4954357;28;20499;-64
2021/12/05 13:55:38;;;;;;;5.50;3.42;;;5.30;99.90;;;;;;4851778;29;20097;-64
2021/12/05 13:58:28;;;;;;;5.40;3.60;;;5.30;99.90;;;;;;4852744;29;20105;-64
2021/12/05 14:01:20;;;;;;;5.82;4.10;;;5.40;99.90;;;;;;4931583;28;20059;-64
2021/12/05 14:04:00;;;;;;;6.10;3.35;;;5.40;99.90;;;;;;4959193;28;20047;-64
2021/12/05 14:06:53;;;;;;;5.10;3.45;;;5.30;99.90;;;;;;4955813;28;20035;-64
2021/12/05 14:09:21;;;;;;;6.60;4.03;;;5.40;99.90;;;;;;4944510;28;20055;-64
2021/12/05 14:11:49;;;;;;;7.53;4.18;;;5.40;99.90;;;;;;4953382;28;20038;-64
2021/12/05 14:14:18;;;;;;;7.38;3.78;;;5.40;99.90;;;;;;4961702;28;20035;-64
2021/12/05 14:16:48;;;;;;;8.63;4.40;;;5.40;99.90;;;;;;4956808;28;20046;-63
2021/12/05 14:19:18;;;;;;;7.40;3.70;;;5.40;99.90;;;;;;4964670;28;20035;-63
2021/12/05 14:21:48;;;;;;;6.07;3.58;;;5.40;99.90;;;;;;4957388;28;20451;-63
2021/12/05 14:24:15;;;;;;;6.97;3.45;;;5.40;99.90;;;;;;4951849;28;20070;-64
2021/12/05 14:26:41;;;;;;;6.47;3.90;;;5.30;99.90;;;;;;4956463;28;20069;-63
2021/12/05 14:29:19;;;;;;;7.20;4.35;;;5.30;99.90;;;;;;4966707;28;20074;-63
2021/12/05 14:31:56;;;;;;;9.18;4.07;;;5.20;99.90;;;;;;4963276;28;20102;-63
2021/12/05 14:34:23;;;;;;;6.55;4.30;;;5.20;99.90;;;;;;4962688;28;20055;-63
2021/12/05 14:36:56;;;;;;;9.50;4.60;;;5.20;99.90;;;;;;4964964;28;20039;-64
2021/12/05 14:39:40;;;;;;;4.32;3.83;;;5.20;99.90;;;;;;4960122;28;20038;-63
2021/12/05 14:42:10;;;;;;;4.18;3.75;;;5.20;99.90;;;;;;4962189;28;20394;-63
2021/12/05 14:44:38;;;;;;;7.25;5.28;;;5.10;99.90;;;;;;4961343;28;20129;-63
2021/12/05 14:47:16;;;;;;;6.35;4.50;;;5.20;99.90;;;;;;4960447;28;20028;-63
2021/12/05 14:49:49;;;;;;;8.00;4.85;;;5.20;99.90;;;;;;4957491;28;20049;-63
2021/12/05 14:52:20;;;;;;;6.50;5.65;;;5.10;99.90;;;;;;4962759;28;20617;-64
2021/12/05 14:54:46;;;;;;;10.05;6.10;;;5.10;99.90;;;;;;4961038;28;20097;-63
2021/12/05 14:57:19;;;;;;;7.50;5.75;;;5.10;99.90;;;;;;4962385;28;20035;-64
2021/12/05 14:59:47;;;;;;;5.03;4.50;;;5.10;99.90;;;;;;4958961;28;20487;-64
2021/12/05 15:02:15;;;;;;;7.75;5.15;;;5.10;99.90;;;;;;4942551;28;20050;-64
2021/12/05 15:04:45;;;;;;;7.13;4.30;;;5.10;99.90;;;;;;4947814;28;20039;-64
2021/12/05 15:07:11;;;;;;;7.35;4.32;;;5.00;99.90;;;;;;4956190;28;20124;-64
2021/12/05 15:09:44;;;;;;;8.45;4.30;;;5.00;99.90;;;;;;4950170;28;20069;-64
2021/12/05 15:12:18;;;;;;;6.68;4.60;;;5.00;99.90;;;;;;4954180;28;20621;-64
2021/12/05 15:14:47;;;;;;;6.50;3.83;;;5.00;99.90;;;;;;4950576;28;20074;-64
2021/12/05 15:17:16;;;;;;;7.47;4.70;;;4.90;99.90;;;;;;4956060;28;20031;-64
2021/12/05 15:19:46;;;;;;;6.47;5.60;;;4.80;99.90;;;;;;4951107;28;20058;-64
2021/12/05 15:22:13;;;;;;;8.45;5.13;;;4.90;99.90;;;;;;4965418;28;20496;-64
2021/12/05 15:24:41;;;;;;;9.57;5.88;;;4.80;99.90;;;;;;4951538;28;20114;-64
2021/12/05 15:27:15;;;;;;;9.68;6.18;;;4.80;99.90;;;;;;4961854;28;20053;-64
2021/12/05 15:29:57;;;;;;;8.57;7.07;;;4.80;99.90;;;;;;4960118;28;20065;-64
2021/12/05 15:32:30;;;;;;;9.95;6.60;;;4.80;99.90;;;;;;4960299;28;20619;-64
2021/12/05 15:35:02;;;;;;;9.63;6.50;;;4.80;99.90;;;;;;4954486;28;20111;-64
2021/12/05 15:37:28;;;;;;;11.18;7.82;;;4.80;99.90;;;;;;4948000;28;20567;-64
2021/12/05 15:39:56;;;;;;;10.75;7.63;;;4.80;99.90;;;;;;4956332;28;20038;-64
2021/12/05 15:42:25;;;;;;;9.60;7.10;;;4.80;99.90;;;;;;4962366;28;20051;-64
2021/12/05 15:44:55;;;;;;;10.38;7.22;;;4.80;99.90;;;;;;4957557;28;20124;-64
2021/12/05 15:47:32;;;;;;;7.68;6.88;;;4.80;99.90;;;;;;4964985;28;20123;-64
2021/12/05 15:50:12;;;;;;;11.07;7.10;;;4.80;99.90;;;;;;4958867;28;20060;-64
2021/12/05 15:52:40;;;;;;;11.88;9.65;;;4.80;99.90;;;;;;4950923;28;20062;-64
2021/12/05 15:55:18;;;;;;;9.77;7.45;;;4.80;99.90;;;;;;4956059;28;20513;-64
2021/12/05 15:57:55;;;;;;;11.77;8.05;;;4.80;99.90;;;;;;4962096;28;20407;-64
2021/12/05 16:00:35;;;;;;;9.30;6.82;;;4.70;99.90;;;;;;4958854;28;20035;-64
2021/12/05 16:03:06;;;;;;;11.60;6.70;;;4.80;99.90;;;;;;4961159;28;20188;-64
2021/12/05 16:05:34;;;;;;;10.88;8.30;;;4.80;99.90;;;;;;4952349;28;20035;-64
2021/12/05 16:08:05;;;;;;;11.07;8.15;;;4.80;99.90;;;;;;4954010;28;20050;-64
2021/12/05 16:10:34;;;;;;;13.40;9.63;;;4.80;99.90;;;;;;4951101;28;20043;-64
2021/12/05 16:13:15;;;;;;;10.05;9.05;;;4.80;99.90;;;;;;4952044;28;20466;-64
2021/12/05 16:15:44;;;;;;;12.77;10.18;;;4.80;99.90;;;;;;4957381;28;20478;-64
2021/12/05 16:18:10;;;;;;;13.80;11.45;;;4.80;99.90;;;;;;4957260;28;20042;-64
2021/12/05 16:20:48;;;;;;;12.68;8.20;;;4.70;99.90;;;;;;4957966;28;20093;-64
2021/12/05 16:23:40;;;;;;;9.65;6.43;;;4.80;99.90;;;;;;4953019;28;20042;-63
2021/12/05 16:26:25;;;;;;;10.50;7.07;;;4.80;99.90;;;;;;4955611;28;20054;-64
2021/12/05 16:28:54;;;;;;;9.55;7.40;;;4.80;99.90;;;;;;4958082;28;20598;-64
2021/12/05 16:31:53;;;;;;;8.38;7.20;;;4.80;99.90;;;;;;4960561;28;20170;-64
2021/12/05 16:34:24;;;;;;;11.23;7.60;;;4.80;99.90;;;;;;4947436;28;20058;-64
2021/12/05 16:37:08;;;;;;;11.88;7.78;;;4.80;99.90;;;;;;4955895;28;20043;-64
2021/12/05 16:39:42;;;;;;;9.57;7.77;;;4.80;99.90;;;;;;4962137;28;20547;-64
2021/12/05 16:42:12;;;;;;;12.02;8.32;;;4.80;99.90;;;;;;4955689;28;20521;-64
2021/12/05 16:44:40;;;;;;;12.40;10.13;;;4.80;99.90;;;;;;4961667;28;20030;-64
2021/12/05 16:47:13;;;;;;;11.70;9.02;;;4.80;99.90;;;;;;4932502;28;20043;-64
2021/12/05 16:49:45;;;;;;;13.55;9.10;;;4.80;99.90;;;;;;4959822;28;20043;-64
2021/12/05 16:52:22;;;;;;;13.63;9.15;;;4.80;99.90;;;;;;4955380;28;20047;-64
2021/12/05 16:54:54;;;;;;;15.55;9.40;;;4.80;99.90;;;;;;4963405;28;20039;-64
2021/12/05 16:57:24;;;;;;;15.13;9.43;;;4.90;99.90;;;;;;4957403;28;20121;-64
2021/12/05 17:00:18;;;;;;;15.73;9.95;;;4.80;99.90;;;;;;4958641;28;20432;-64
2021/12/05 17:02:53;;;;;;;18.90;10.82;;;4.80;99.90;;;;;;4935426;28;20050;-64
2021/12/05 17:05:24;;;;;;;16.05;10.68;;;4.80;99.90;;;;;;4962366;28;20098;-64
2021/12/05 17:08:12;;;;;;;12.95;10.00;;;4.80;99.90;;;;;;4955439;28;20053;-64
2021/12/05 17:10:50;;;;;;;15.32;11.25;;;4.80;99.90;;;;;;4956722;28;20160;-64
2021/12/05 17:13:23;;;;;;;20.70;11.90;;;4.80;99.90;;;;;;4958169;28;20051;-64
2021/12/05 17:15:49;;;;;;;17.10;11.85;;;4.80;99.90;;;;;;4961700;28;20043;-64
2021/12/05 17:18:23;;;;;;;16.77;12.23;;;4.80;99.90;;;;;;4954052;28;20408;-64
2021/12/05 17:21:08;;;;;;;18.15;11.93;;;4.90;99.90;;;;;;4961213;28;20079;-64
2021/12/05 17:23:59;;;;;;;21.58;12.77;;;4.80;99.90;;;;;;4932210;28;20069;-64
2021/12/05 17:26:31;;;;;;;20.02;12.85;;;4.80;99.90;;;;;;4964642;28;20039;-64
2021/12/05 17:29:19;;;;;;;17.92;12.90;;;4.80;99.90;;;;;;4951327;28;20039;-64
2021/12/05 17:32:04;;;;;;;17.40;11.82;;;4.80;99.90;;;;;;4958491;28;20085;-64
2021/12/05 17:34:34;;;;;;;17.48;12.35;;;4.80;99.90;;;;;;4956863;28;20046;-64
2021/12/05 17:37:06;;;;;;;19.40;12.43;;;4.80;99.90;;;;;;4964238;28;20049;-64
2021/12/05 17:39:39;;;;;;;20.95;12.73;;;4.80;99.90;;;;;;4954260;28;20050;-64
2021/12/05 17:42:15;;;;;;;24.63;12.77;;;4.80;99.90;;;;;;4962848;28;20042;-64
2021/12/05 17:44:42;;;;;;;19.05;12.63;;;4.80;99.90;;;;;;4954331;28;20043;-64
2021/12/05 17:47:10;;;;;;;17.25;13.60;;;4.80;99.90;;;;;;4963160;28;20038;-64
2021/12/05 17:49:39;;;;;;;21.92;14.20;;;4.80;99.90;;;;;;4955225;28;20517;-64
2021/12/05 17:52:06;;;;;;;19.85;13.55;;;4.80;99.90;;;;;;4962367;28;20047;-64
2021/12/05 17:54:41;;;;;;;24.63;14.60;;;4.80;99.90;;;;;;4961757;28;20039;-64
2021/12/05 17:57:16;;;;;;;20.33;15.02;;;4.80;99.90;;;;;;4962390;28;20126;-64
2021/12/05 17:59:58;;;;;;;;;;;4.80;99.90;;;;;;4966582;28;20042;-64
2021/12/05 18:05:13;;;;;;;28.08;15.98;;;4.80;99.90;;;;;;4961916;28;20043;-64
2021/12/05 18:07:39;;;;;;;24.25;15.52;;;4.80;99.90;;;;;;4947426;28;20061;-64
2021/12/05 18:10:05;;;;;;;23.85;17.13;;;4.80;99.90;;;;;;4964626;28;20399;-64
2021/12/05 18:12:34;;;;;;;24.20;16.48;;;4.80;99.90;;;;;;4957887;28;20542;-64
2021/12/05 18:15:12;;;;;;;25.27;18.00;;;4.80;99.90;;;;;;4963481;28;20045;-64
2021/12/05 18:17:37;;;;;;;26.20;16.63;;;4.80;99.90;;;;;;4958177;28;20047;-64
2021/12/05 18:20:06;;;;;;;28.60;18.48;;;4.80;99.90;;;;;;4963113;28;20414;-64
2021/12/05 18:22:32;;;;;;;26.63;18.95;;;4.80;99.90;;;;;;4957909;28;20142;-64
2021/12/05 18:24:58;;;;;;;26.50;18.42;;;4.80;99.90;;;;;;4961296;28;20110;-64
2021/12/05 18:27:24;;;;;;;27.10;18.48;;;4.80;99.90;;;;;;4955667;28;20039;-64
2021/12/05 18:29:50;;;;;;;28.58;20.00;;;4.80;99.90;;;;;;4967769;28;20559;-64
2021/12/05 18:32:16;;;;;;;28.00;18.92;;;4.80;99.90;;;;;;4955212;28;20141;-64